createdAt,value
2019-01-25T00:00:21.433Z,1.30
2019-01-25T00:01:22.506Z,1.40
2019-01-25T00:02:23.620Z,1.30
2019-01-25T00:03:24.648Z,1.40
2019-01-25T00:04:25.701Z,1.30
2019-01-25T00:05:26.741Z,1.40
2019-01-25T00:06:27.803Z,1.40
2019-01-25T00:07:28.837Z,1.50
2019-01-25T00:08:29.859Z,1.50
2019-01-25T00:09:30.897Z,1.40
2019-01-25T00:10:32.111Z,1.40
2019-01-25T00:11:33.148Z,1.50
2019-01-25T00:12:34.180Z,1.50
2019-01-25T00:13:35.599Z,1.40
2019-01-25T00:14:36.647Z,1.40
2019-01-25T00:15:37.677Z,1.50
2019-01-25T00:16:38.709Z,1.30
2019-01-25T00:17:39.740Z,1.50
2019-01-25T00:18:40.769Z,1.20
2019-01-25T00:19:41.800Z,1.20
2019-01-25T00:20:42.820Z,1.20
2019-01-25T00:21:43.852Z,1.30
2019-01-25T00:22:44.971Z,1.40
2019-01-25T00:23:46.105Z,1.30
2019-01-25T00:24:47.123Z,1.20
2019-01-25T00:25:48.156Z,1.30
2019-01-25T00:26:49.184Z,1.20
2019-01-25T00:27:50.215Z,1.20
2019-01-25T00:28:51.265Z,1.10
2019-01-25T00:29:52.420Z,1.00
2019-01-25T00:30:53.446Z,1.20
2019-01-25T00:31:54.466Z,1.20
2019-01-25T00:32:55.500Z,1.20
2019-01-25T00:33:56.536Z,1.30
2019-01-25T00:34:57.568Z,1.30
2019-01-25T00:35:58.599Z,1.40
2019-01-25T00:36:59.669Z,1.10
2019-01-25T00:38:00.797Z,1.20
2019-01-25T00:39:04.316Z,1.20
2019-01-25T00:40:08.864Z,1.10
2019-01-25T00:41:09.904Z,1.30
2019-01-25T00:42:11.032Z,1.20
2019-01-25T00:43:12.061Z,1.10
2019-01-25T00:44:13.077Z,1.10
2019-01-25T00:45:14.432Z,1.10
2019-01-25T00:46:15.465Z,1.20
2019-01-25T00:47:16.532Z,1.30
2019-01-25T00:48:17.579Z,1.10
2019-01-25T00:49:18.706Z,1.20
2019-01-25T00:50:20.521Z,1.10
2019-01-25T00:51:21.547Z,1.20
2019-01-25T00:52:22.879Z,1.30
2019-01-25T00:53:23.915Z,1.10
2019-01-25T00:54:24.948Z,1.00
2019-01-25T00:55:26.000Z,1.20
2019-01-25T00:56:27.032Z,1.10
2019-01-25T00:57:28.066Z,1.00
2019-01-25T00:58:29.096Z,1.00
2019-01-25T00:59:30.153Z,1.20
2019-01-25T01:00:31.275Z,1.00
2019-01-25T01:01:32.288Z,1.10
2019-01-25T01:02:33.412Z,1.00
2019-01-25T01:03:34.437Z,1.10
2019-01-25T01:04:35.483Z,1.00
2019-01-25T01:05:36.617Z,1.10
2019-01-25T01:06:37.846Z,1.10
2019-01-25T01:07:38.873Z,1.20
2019-01-25T01:08:39.904Z,1.00
2019-01-25T01:09:40.939Z,1.10
2019-01-25T01:10:41.968Z,1.20
2019-01-25T01:11:43.008Z,0.90
2019-01-25T01:12:44.030Z,1.00
2019-01-25T01:13:45.059Z,1.10
2019-01-25T01:14:46.079Z,1.20
2019-01-25T01:15:47.116Z,1.10
2019-01-25T01:16:48.161Z,1.20
2019-01-25T01:17:49.189Z,1.30
2019-01-25T01:18:50.228Z,1.20
2019-01-25T01:19:51.250Z,1.20
2019-01-25T01:20:52.289Z,1.30
2019-01-25T01:21:53.308Z,1.20
2019-01-25T01:22:54.333Z,1.20
2019-01-25T01:23:55.352Z,0.90
2019-01-25T01:24:56.392Z,0.90
2019-01-25T01:25:57.422Z,0.90
2019-01-25T01:26:58.453Z,0.80
2019-01-25T01:27:59.469Z,0.80
2019-01-25T01:29:00.500Z,1.10
2019-01-25T01:30:03.332Z,0.90
2019-01-25T01:31:04.478Z,1.10
2019-01-25T01:32:05.609Z,1.00
2019-01-25T01:33:06.635Z,1.00
2019-01-25T01:34:07.643Z,1.00
2019-01-25T01:35:08.777Z,0.90
2019-01-25T01:36:09.807Z,0.90
2019-01-25T01:37:10.916Z,1.10
2019-01-25T01:38:11.938Z,1.10
2019-01-25T01:39:12.951Z,0.90
2019-01-25T01:40:22.090Z,1.00
2019-01-25T01:41:21.956Z,0.90
2019-01-25T01:42:22.984Z,0.80
2019-01-25T01:43:24.009Z,0.70
2019-01-25T01:44:25.050Z,0.80
2019-01-25T01:45:26.080Z,0.80
2019-01-25T01:46:27.116Z,0.70
2019-01-25T01:47:28.132Z,0.90
2019-01-25T01:48:29.168Z,0.70
2019-01-25T01:49:30.200Z,0.90
2019-01-25T01:50:31.224Z,0.70
2019-01-25T01:51:32.277Z,0.90
2019-01-25T01:52:33.356Z,0.70
2019-01-25T01:53:34.369Z,0.70
2019-01-25T01:54:35.389Z,0.80
2019-01-25T01:55:36.401Z,0.60
2019-01-25T01:56:37.441Z,0.70
2019-01-25T01:57:38.568Z,0.70
2019-01-25T01:58:39.580Z,0.50
2019-01-25T01:59:40.608Z,0.50
2019-01-25T02:00:41.640Z,0.50
2019-01-25T02:01:42.724Z,0.50
2019-01-25T02:02:43.748Z,0.40
2019-01-25T02:03:44.769Z,0.40
2019-01-25T02:04:45.801Z,0.40
2019-01-25T02:05:46.821Z,0.40
2019-01-25T02:06:47.849Z,0.30
2019-01-25T02:07:48.998Z,0.50
2019-01-25T02:08:50.012Z,0.60
2019-01-25T02:09:51.045Z,0.40
2019-01-25T02:10:52.069Z,0.40
2019-01-25T02:11:53.097Z,0.40
2019-01-25T02:12:54.412Z,0.40
2019-01-25T02:13:55.448Z,0.50
2019-01-25T02:14:56.472Z,0.30
2019-01-25T02:15:57.504Z,0.30
2019-01-25T02:16:58.562Z,0.30
2019-01-25T02:17:59.592Z,0.30
2019-01-25T02:19:00.708Z,0.40
2019-01-25T02:20:03.232Z,0.40
2019-01-25T02:21:04.436Z,0.40
2019-01-25T02:22:05.461Z,0.40
2019-01-25T02:23:06.591Z,0.50
2019-01-25T02:24:07.621Z,0.60
2019-01-25T02:25:08.652Z,0.60
2019-01-25T02:26:09.672Z,0.70
2019-01-25T02:27:10.713Z,0.50
2019-01-25T02:28:11.732Z,0.70
2019-01-25T02:29:12.766Z,0.70
2019-01-25T02:30:19.260Z,0.60
2019-01-25T02:31:20.344Z,0.70
2019-01-25T02:32:21.368Z,0.70
2019-01-25T02:33:22.400Z,0.90
2019-01-25T02:34:23.420Z,0.80
2019-01-25T02:35:24.469Z,0.70
2019-01-25T02:36:25.500Z,0.70
2019-01-25T02:37:26.534Z,0.70
2019-01-25T02:38:27.548Z,0.70
2019-01-25T02:39:28.581Z,0.70
2019-01-25T02:40:38.401Z,0.70
2019-01-25T02:41:32.639Z,0.70
2019-01-25T02:42:33.668Z,0.60
2019-01-25T02:43:34.703Z,0.60
2019-01-25T02:44:35.716Z,0.80
2019-01-25T02:45:36.746Z,0.60
2019-01-25T02:46:37.777Z,0.60
2019-01-25T02:47:39.990Z,0.50
2019-01-25T02:48:41.016Z,0.50
2019-01-25T02:49:42.040Z,0.60
2019-01-25T02:50:43.108Z,0.40
2019-01-25T02:51:44.141Z,0.40
2019-01-25T02:52:45.575Z,0.40
2019-01-25T02:53:46.601Z,0.50
2019-01-25T02:54:47.634Z,0.50
2019-01-25T02:55:48.714Z,0.70
2019-01-25T02:56:49.754Z,0.60
2019-01-25T02:57:50.789Z,0.40
2019-01-25T02:58:51.815Z,0.50
2019-01-25T02:59:52.872Z,0.50
2019-01-25T03:00:53.903Z,0.50
2019-01-25T03:01:54.943Z,0.50
2019-01-25T03:02:55.969Z,0.50
2019-01-25T03:03:57.001Z,0.50
2019-01-25T03:04:58.033Z,0.50
2019-01-25T03:05:59.065Z,0.60
2019-01-25T03:07:00.197Z,0.40
2019-01-25T03:08:01.229Z,0.60
2019-01-25T03:09:05.764Z,0.70
2019-01-25T03:10:14.850Z,0.50
2019-01-25T03:11:15.876Z,0.60
2019-01-25T03:12:16.920Z,0.60
2019-01-25T03:13:17.952Z,0.80
2019-01-25T03:14:19.002Z,0.60
2019-01-25T03:15:24.525Z,0.50
2019-01-25T03:16:25.564Z,0.60
2019-01-25T03:17:26.596Z,0.70
2019-01-25T03:18:27.632Z,0.70
2019-01-25T03:19:28.944Z,0.80
2019-01-25T03:20:29.977Z,0.60
2019-01-25T03:21:31.026Z,0.80
2019-01-25T03:22:32.062Z,0.60
2019-01-25T03:23:33.120Z,0.70
2019-01-25T03:24:34.225Z,0.60
2019-01-25T03:25:35.352Z,0.80
2019-01-25T03:26:36.623Z,0.70
2019-01-25T03:27:37.685Z,1.00
2019-01-25T03:28:38.770Z,0.90
2019-01-25T03:29:39.788Z,1.00
2019-01-25T03:30:40.818Z,0.70
2019-01-25T03:31:41.854Z,0.90
2019-01-25T03:32:42.913Z,0.90
2019-01-25T03:33:44.020Z,0.80
2019-01-25T03:34:45.041Z,0.80
2019-01-25T03:35:46.071Z,0.90
2019-01-25T03:36:47.116Z,0.70
2019-01-25T03:37:48.614Z,0.60
2019-01-25T03:38:49.642Z,0.80
2019-01-25T03:39:50.681Z,0.60
2019-01-25T03:40:55.299Z,0.70
2019-01-25T03:41:54.665Z,0.70
2019-01-25T03:42:56.089Z,0.60
2019-01-25T03:43:57.110Z,0.60
2019-01-25T03:44:58.423Z,0.60
2019-01-25T03:45:59.462Z,0.50
2019-01-25T03:47:00.594Z,0.70
2019-01-25T03:48:01.705Z,0.50
2019-01-25T03:49:02.842Z,0.60
2019-01-25T03:50:07.381Z,0.40
2019-01-25T03:51:08.384Z,0.40
2019-01-25T03:52:09.436Z,0.60
2019-01-25T03:53:10.470Z,0.40
2019-01-25T03:54:11.477Z,0.40
2019-01-25T03:55:13.416Z,0.30
2019-01-25T03:56:14.451Z,0.30
2019-01-25T03:57:15.691Z,0.50
2019-01-25T03:58:16.847Z,0.30
2019-01-25T03:59:17.855Z,0.30
2019-01-25T04:00:24.016Z,0.40
2019-01-25T04:01:25.034Z,0.30
2019-01-25T04:02:26.070Z,0.40
2019-01-25T04:03:27.105Z,0.20
2019-01-25T04:04:28.140Z,0.50
2019-01-25T04:05:29.165Z,0.40
2019-01-25T04:06:30.186Z,0.30
2019-01-25T04:07:31.222Z,0.30
2019-01-25T04:08:32.235Z,0.30
2019-01-25T04:09:33.264Z,0.50
2019-01-25T04:10:34.284Z,0.30
2019-01-25T04:11:35.309Z,0.30
2019-01-25T04:12:36.348Z,0.30
2019-01-25T04:13:37.372Z,0.30
2019-01-25T04:14:38.381Z,0.40
2019-01-25T04:15:39.581Z,0.30
2019-01-25T04:16:40.645Z,0.40
2019-01-25T04:17:41.701Z,0.20
2019-01-25T04:18:42.711Z,0.30
2019-01-25T04:19:43.725Z,0.50
2019-01-25T04:20:44.749Z,0.30
2019-01-25T04:21:45.771Z,0.40
2019-01-25T04:22:47.004Z,0.30
2019-01-25T04:23:48.033Z,0.40
2019-01-25T04:24:49.085Z,0.40
2019-01-25T04:25:50.107Z,0.40
2019-01-25T04:26:51.111Z,0.40
2019-01-25T04:27:52.505Z,0.30
2019-01-25T04:28:55.440Z,0.30
2019-01-25T04:29:56.459Z,0.30
2019-01-25T04:30:57.512Z,0.20
2019-01-25T04:31:58.540Z,0.30
2019-01-25T04:32:59.621Z,0.30
2019-01-25T04:34:00.677Z,0.50
2019-01-25T04:35:02.499Z,0.30
2019-01-25T04:36:03.520Z,0.30
2019-01-25T04:37:04.546Z,0.30
2019-01-25T04:38:05.706Z,0.20
2019-01-25T04:39:07.351Z,0.40
2019-01-25T04:40:11.400Z,0.20
2019-01-25T04:41:12.428Z,0.30
2019-01-25T04:42:13.450Z,0.10
2019-01-25T04:43:14.482Z,0.10
2019-01-25T04:44:15.513Z,0.30
2019-01-25T04:45:18.350Z,0.00
2019-01-25T04:46:19.345Z,0.20
2019-01-25T04:47:24.479Z,0.20
2019-01-25T04:48:25.536Z,0.20
2019-01-25T04:49:26.549Z,0.20
2019-01-25T04:50:27.569Z,0.20
2019-01-25T04:51:28.600Z,0.10
2019-01-25T04:52:29.624Z,0.10
2019-01-25T04:53:33.643Z,0.20
2019-01-25T04:54:34.772Z,0.20
2019-01-25T04:55:35.779Z,0.20
2019-01-25T04:56:37.000Z,0.10
2019-01-25T04:57:38.041Z,0.20
2019-01-25T04:58:39.051Z,0.40
2019-01-25T04:59:40.081Z,0.50
2019-01-25T05:00:41.496Z,0.50
2019-01-25T05:01:42.540Z,0.40
2019-01-25T05:02:48.501Z,0.40
2019-01-25T05:03:50.017Z,0.40
2019-01-25T05:04:51.047Z,0.60
2019-01-25T05:05:52.099Z,0.50
2019-01-25T05:06:53.106Z,0.60
2019-01-25T05:08:06.762Z,0.50
2019-01-25T05:09:08.349Z,0.60
2019-01-25T05:10:09.575Z,0.80
2019-01-25T05:11:19.722Z,0.60
2019-01-25T05:12:17.442Z,0.80
2019-01-25T05:13:18.654Z,0.80
2019-01-25T05:14:19.705Z,0.70
2019-01-25T05:15:20.792Z,0.60
2019-01-25T05:16:21.826Z,0.60
2019-01-25T05:17:22.852Z,0.60
2019-01-25T05:18:23.894Z,0.80
2019-01-25T05:19:24.903Z,0.80
2019-01-25T05:20:26.023Z,0.80
2019-01-25T05:21:28.301Z,0.70
2019-01-25T05:22:29.418Z,0.90
2019-01-25T05:23:30.463Z,0.90
2019-01-25T05:24:31.484Z,0.90
2019-01-25T05:25:32.500Z,1.10
2019-01-25T05:26:33.528Z,1.00
2019-01-25T05:27:34.555Z,0.90
2019-01-25T05:28:35.604Z,0.90
2019-01-25T05:29:49.427Z,1.10
2019-01-25T05:30:53.636Z,1.10
2019-01-25T05:31:54.667Z,1.10
2019-01-25T05:32:55.698Z,0.90
2019-01-25T05:33:56.718Z,0.80
2019-01-25T05:34:57.744Z,1.00
2019-01-25T05:35:58.872Z,0.80
2019-01-25T05:36:59.950Z,0.70
2019-01-25T05:38:01.079Z,0.50
2019-01-25T05:39:05.304Z,0.50
2019-01-25T05:40:08.241Z,0.50
2019-01-25T05:41:09.360Z,0.70
2019-01-25T05:42:10.397Z,0.50
2019-01-25T05:43:11.427Z,0.60
2019-01-25T05:44:12.464Z,0.60
2019-01-25T05:45:15.688Z,0.80
2019-01-25T05:46:16.734Z,0.60
2019-01-25T05:47:17.757Z,0.80
2019-01-25T05:48:22.888Z,0.60
2019-01-25T05:49:23.918Z,0.70
2019-01-25T05:50:24.935Z,0.80
2019-01-25T05:51:33.428Z,0.70
2019-01-25T05:52:28.982Z,0.60
2019-01-25T05:53:30.004Z,0.70
2019-01-25T05:54:31.028Z,0.70
2019-01-25T05:55:32.360Z,0.90
2019-01-25T05:56:38.988Z,0.70
2019-01-25T05:57:40.044Z,1.00
2019-01-25T05:58:41.076Z,0.70
2019-01-25T05:59:42.106Z,0.90
2019-01-25T06:00:44.741Z,1.00
2019-01-25T06:01:45.777Z,0.90
2019-01-25T06:02:46.795Z,1.00
2019-01-25T06:03:47.838Z,0.90
2019-01-25T06:04:49.050Z,0.90
2019-01-25T06:05:55.771Z,1.00
2019-01-25T06:06:56.795Z,1.10
2019-01-25T06:07:57.809Z,1.00
2019-01-25T06:08:58.837Z,1.10
2019-01-25T06:09:59.851Z,1.30
2019-01-25T06:11:03.275Z,1.30
2019-01-25T06:12:04.463Z,1.20
2019-01-25T06:13:05.525Z,1.10
2019-01-25T06:14:08.466Z,1.00
2019-01-25T06:15:11.536Z,0.90
2019-01-25T06:16:13.200Z,0.90
2019-01-25T06:17:14.233Z,0.80
2019-01-25T06:18:15.262Z,1.00
2019-01-25T06:19:16.401Z,0.90
2019-01-25T06:20:17.801Z,0.90
2019-01-25T06:21:18.933Z,0.90
2019-01-25T06:22:19.968Z,0.80
2019-01-25T06:23:21.393Z,0.80
2019-01-25T06:24:22.469Z,0.80
2019-01-25T06:25:23.505Z,1.00
2019-01-25T06:26:24.531Z,0.80
2019-01-25T06:27:25.566Z,0.90
2019-01-25T06:28:26.877Z,0.90
2019-01-25T06:29:29.628Z,0.80
2019-01-25T06:30:30.648Z,0.90
2019-01-25T06:31:31.819Z,0.80
2019-01-25T06:32:32.908Z,1.00
2019-01-25T06:33:34.129Z,1.00
2019-01-25T06:34:35.169Z,0.80
2019-01-25T06:35:36.196Z,1.10
2019-01-25T06:36:37.211Z,1.10
2019-01-25T06:37:38.241Z,0.90
2019-01-25T06:38:39.268Z,1.10
2019-01-25T06:39:40.293Z,1.10
2019-01-25T06:40:41.315Z,0.70
2019-01-25T06:41:44.192Z,0.90
2019-01-25T06:42:45.284Z,0.90
2019-01-25T06:43:46.308Z,0.90
2019-01-25T06:44:47.333Z,0.80
2019-01-25T06:45:49.860Z,0.90
2019-01-25T06:46:51.100Z,0.70
2019-01-25T06:47:52.121Z,0.70
2019-01-25T06:48:53.154Z,0.80
2019-01-25T06:49:54.186Z,0.50
2019-01-25T06:50:55.209Z,0.70
2019-01-25T06:51:56.224Z,0.60
2019-01-25T06:52:57.244Z,0.50
2019-01-25T06:53:58.275Z,0.70
2019-01-25T06:54:59.291Z,0.60
2019-01-25T06:56:00.327Z,0.50
2019-01-25T06:57:03.253Z,0.70
2019-01-25T06:58:06.792Z,0.60
2019-01-25T06:59:09.844Z,0.60
2019-01-25T07:00:17.093Z,0.60
2019-01-25T07:01:28.920Z,0.70
2019-01-25T07:02:30.064Z,0.60
2019-01-25T07:03:31.116Z,0.60
2019-01-25T07:04:32.166Z,0.60
2019-01-25T07:05:33.180Z,0.70
2019-01-25T07:06:34.207Z,0.60
2019-01-25T07:07:35.343Z,0.70
2019-01-25T07:08:36.423Z,0.50
2019-01-25T07:09:37.473Z,0.60
2019-01-25T07:10:38.585Z,0.60
2019-01-25T07:11:42.307Z,0.40
2019-01-25T07:12:42.736Z,0.50
2019-01-25T07:13:43.798Z,0.40
2019-01-25T07:14:44.828Z,0.40
2019-01-25T07:15:45.855Z,0.50
2019-01-25T07:16:46.904Z,0.40
2019-01-25T07:17:49.224Z,0.50
2019-01-25T07:18:50.565Z,0.40
2019-01-25T07:19:51.718Z,0.60
2019-01-25T07:20:52.755Z,0.50
2019-01-25T07:21:53.784Z,0.50
2019-01-25T07:22:54.812Z,0.70
2019-01-25T07:23:55.850Z,0.70
2019-01-25T07:24:57.275Z,0.60
2019-01-25T07:25:58.605Z,0.60
2019-01-25T07:26:59.634Z,0.70
2019-01-25T07:28:00.677Z,0.60
2019-01-25T07:29:01.696Z,0.80
2019-01-25T07:30:06.554Z,0.60
2019-01-25T07:31:07.708Z,0.60
2019-01-25T07:32:09.070Z,0.60
2019-01-25T07:33:10.173Z,0.70
2019-01-25T07:34:11.217Z,0.60
2019-01-25T07:35:12.347Z,0.70
2019-01-25T07:36:13.369Z,0.70
2019-01-25T07:37:14.390Z,0.70
2019-01-25T07:38:15.414Z,0.70
2019-01-25T07:39:21.330Z,0.60
2019-01-25T07:40:22.582Z,0.80
2019-01-25T07:41:23.618Z,0.50
2019-01-25T07:42:24.662Z,0.70
2019-01-25T07:43:25.781Z,0.60
2019-01-25T07:44:28.698Z,0.60
2019-01-25T07:45:29.725Z,0.50
2019-01-25T07:46:30.783Z,0.50
2019-01-25T07:47:32.847Z,0.70
2019-01-25T07:48:33.973Z,0.50
2019-01-25T07:49:35.105Z,0.60
2019-01-25T07:50:36.218Z,0.60
2019-01-25T07:51:37.344Z,0.80
2019-01-25T07:52:38.359Z,0.60
2019-01-25T07:53:39.384Z,0.70
2019-01-25T07:54:40.460Z,0.70
2019-01-25T07:55:42.057Z,0.60
2019-01-25T07:56:43.240Z,0.70
2019-01-25T07:57:44.359Z,0.60
2019-01-25T07:58:45.374Z,0.60
2019-01-25T07:59:46.420Z,0.60
2019-01-25T08:00:47.546Z,0.80
2019-01-25T08:01:48.764Z,0.80
2019-01-25T08:02:49.970Z,0.70
2019-01-25T08:03:51.049Z,0.50
2019-01-25T08:04:52.088Z,0.60
2019-01-25T08:05:53.119Z,0.50
2019-01-25T08:06:54.157Z,0.80
2019-01-25T08:07:55.163Z,0.80
2019-01-25T08:08:56.279Z,0.60
2019-01-25T08:09:57.293Z,0.60
2019-01-25T08:10:58.333Z,0.50
2019-01-25T08:12:07.090Z,0.80
2019-01-25T08:13:02.362Z,0.60
2019-01-25T08:14:03.750Z,0.60
2019-01-25T08:15:08.616Z,0.70
2019-01-25T08:16:09.644Z,0.80
2019-01-25T08:17:10.664Z,0.60
2019-01-25T08:18:11.684Z,0.80
2019-01-25T08:19:12.712Z,0.90
2019-01-25T08:20:14.150Z,0.80
2019-01-25T08:21:15.266Z,0.80
2019-01-25T08:22:16.415Z,0.80
2019-01-25T08:23:17.436Z,0.90
2019-01-25T08:24:18.633Z,0.90
2019-01-25T08:25:19.674Z,1.00
2019-01-25T08:26:20.818Z,0.90
2019-01-25T08:27:21.939Z,0.90
2019-01-25T08:28:22.971Z,0.90
2019-01-25T08:29:28.136Z,0.50
2019-01-25T08:30:27.044Z,0.90
2019-01-25T08:31:28.064Z,1.20
2019-01-25T08:32:29.095Z,1.10
2019-01-25T08:33:30.257Z,1.30
2019-01-25T08:34:31.261Z,1.20
2019-01-25T08:35:32.302Z,1.20
2019-01-25T08:36:33.344Z,1.30
2019-01-25T08:37:34.387Z,1.20
2019-01-25T08:38:35.425Z,1.20
2019-01-25T08:39:36.500Z,1.00
2019-01-25T08:40:37.597Z,1.10
2019-01-25T08:41:38.641Z,0.90
2019-01-25T08:42:39.671Z,1.00
2019-01-25T08:43:40.705Z,0.90
2019-01-25T08:44:41.724Z,0.90
2019-01-25T08:45:42.852Z,0.90
2019-01-25T08:46:43.913Z,1.00
2019-01-25T08:47:44.932Z,0.90
2019-01-25T08:48:46.123Z,0.80
2019-01-25T08:49:47.180Z,1.10
2019-01-25T08:50:48.225Z,0.90
2019-01-25T08:51:49.257Z,0.90
2019-01-25T08:52:50.355Z,0.90
2019-01-25T08:53:51.420Z,1.00
2019-01-25T08:54:52.452Z,0.90
2019-01-25T08:55:53.497Z,0.90
2019-01-25T08:56:54.543Z,1.10
2019-01-25T08:57:55.772Z,0.50
2019-01-25T08:58:58.789Z,1.10
2019-01-25T08:59:59.839Z,1.10
2019-01-25T09:01:00.881Z,1.10
2019-01-25T09:02:01.905Z,1.20
2019-01-25T09:03:02.993Z,1.00
2019-01-25T09:04:04.083Z,1.20
2019-01-25T09:05:07.720Z,1.30
2019-01-25T09:06:08.760Z,1.10
2019-01-25T09:07:09.813Z,1.10
2019-01-25T09:08:10.967Z,1.20
2019-01-25T09:09:11.984Z,1.30
2019-01-25T09:10:16.032Z,1.40
2019-01-25T09:11:17.069Z,1.20
2019-01-25T09:12:23.231Z,1.40
2019-01-25T09:13:21.061Z,1.30
2019-01-25T09:14:22.239Z,1.30
2019-01-25T09:15:34.001Z,1.30
2019-01-25T09:16:35.035Z,1.30
2019-01-25T09:17:36.413Z,1.30
2019-01-25T09:18:37.425Z,1.40
2019-01-25T09:19:38.463Z,1.40
2019-01-25T09:20:39.723Z,1.40
2019-01-25T09:21:40.851Z,1.30
2019-01-25T09:22:42.189Z,1.50
2019-01-25T09:23:43.270Z,1.70
2019-01-25T09:24:44.315Z,1.70
2019-01-25T09:25:45.333Z,1.60
2019-01-25T09:26:46.381Z,1.50
2019-01-25T09:27:47.432Z,1.70
2019-01-25T09:28:48.439Z,1.60
2019-01-25T09:29:49.470Z,1.60
2019-01-25T09:30:50.502Z,1.60
2019-01-25T09:31:51.540Z,1.30
2019-01-25T09:32:52.561Z,1.50
2019-01-25T09:33:53.597Z,1.60
2019-01-25T09:34:54.620Z,1.60
2019-01-25T09:35:55.660Z,1.60
2019-01-25T09:36:56.696Z,1.60
2019-01-25T09:37:57.739Z,1.40
2019-01-25T09:38:58.768Z,1.80
2019-01-25T09:39:59.809Z,1.60
2019-01-25T09:41:00.925Z,1.70
2019-01-25T09:42:01.965Z,1.50
2019-01-25T09:43:03.080Z,1.50
2019-01-25T09:44:04.109Z,1.60
2019-01-25T09:45:08.336Z,1.60
2019-01-25T09:46:09.360Z,1.80
2019-01-25T09:47:10.397Z,1.60
2019-01-25T09:48:11.420Z,1.70
2019-01-25T09:49:13.256Z,1.90
2019-01-25T09:50:18.177Z,2.10
2019-01-25T09:51:19.210Z,1.90
2019-01-25T09:52:20.240Z,1.90
2019-01-25T09:53:21.269Z,1.90
2019-01-25T09:54:22.303Z,2.00
2019-01-25T09:55:24.845Z,2.10
2019-01-25T09:56:25.967Z,2.00
2019-01-25T09:57:27.008Z,2.20
2019-01-25T09:58:28.048Z,2.10
2019-01-25T09:59:29.086Z,2.10
2019-01-25T10:00:36.474Z,2.20
2019-01-25T10:01:37.509Z,2.20
2019-01-25T10:02:38.545Z,2.20
2019-01-25T10:03:39.631Z,2.00
2019-01-25T10:04:40.707Z,2.40
2019-01-25T10:05:41.742Z,2.50
2019-01-25T10:06:43.066Z,2.50
2019-01-25T10:07:44.122Z,2.50
2019-01-25T10:08:45.156Z,2.60
2019-01-25T10:09:46.176Z,2.40
2019-01-25T10:10:47.622Z,2.70
2019-01-25T10:12:07.377Z,2.50
2019-01-25T10:13:08.445Z,2.70
2019-01-25T10:14:09.478Z,2.80
2019-01-25T10:15:14.119Z,2.80
2019-01-25T10:16:15.176Z,3.00
2019-01-25T10:17:16.232Z,2.90
2019-01-25T10:18:17.273Z,2.90
2019-01-25T10:19:18.300Z,2.80
2019-01-25T10:20:19.428Z,2.80
2019-01-25T10:21:20.492Z,2.80
2019-01-25T10:22:21.520Z,2.80
2019-01-25T10:23:22.536Z,2.80
2019-01-25T10:24:23.583Z,2.80
2019-01-25T10:25:24.797Z,2.80
2019-01-25T10:26:25.828Z,2.70
2019-01-25T10:27:26.856Z,2.70
2019-01-25T10:28:27.886Z,2.80
2019-01-25T10:29:28.916Z,2.50
2019-01-25T10:30:29.954Z,2.90
2019-01-25T10:31:31.079Z,2.80
2019-01-25T10:32:32.187Z,2.80
2019-01-25T10:33:33.231Z,2.80
2019-01-25T10:34:34.240Z,2.80
2019-01-25T10:35:35.268Z,2.80
2019-01-25T10:36:36.288Z,2.90
2019-01-25T10:37:37.316Z,3.00
2019-01-25T10:38:38.348Z,3.00
2019-01-25T10:39:39.366Z,3.00
2019-01-25T10:40:40.384Z,3.00
2019-01-25T10:41:41.407Z,3.00
2019-01-25T10:42:45.575Z,3.00
2019-01-25T10:43:45.537Z,2.90
2019-01-25T10:44:46.551Z,2.90
2019-01-25T10:45:47.582Z,2.90
2019-01-25T10:46:48.653Z,2.90
2019-01-25T10:47:49.731Z,2.90
2019-01-25T10:48:50.752Z,2.90
2019-01-25T10:49:51.784Z,3.00
2019-01-25T10:50:52.811Z,3.00
2019-01-25T10:51:53.823Z,3.10
2019-01-25T10:52:54.852Z,3.10
2019-01-25T10:53:55.868Z,3.10
2019-01-25T10:54:56.892Z,3.10
2019-01-25T10:55:57.904Z,3.10
2019-01-25T10:56:59.045Z,3.10
2019-01-25T10:58:00.086Z,3.10
2019-01-25T10:59:01.119Z,3.20
2019-01-25T11:00:05.958Z,3.20
2019-01-25T11:01:06.991Z,3.20
2019-01-25T11:02:08.007Z,3.10
2019-01-25T11:03:09.041Z,3.10
2019-01-25T11:04:11.728Z,3.00
2019-01-25T11:05:24.924Z,3.00
2019-01-25T11:06:25.950Z,3.00
2019-01-25T11:07:26.967Z,3.10
2019-01-25T11:08:28.305Z,3.20
2019-01-25T11:09:29.328Z,3.20
2019-01-25T11:10:30.870Z,3.30
2019-01-25T11:11:31.921Z,3.30
2019-01-25T11:12:32.983Z,3.20
2019-01-25T11:13:34.032Z,3.20
2019-01-25T11:14:35.087Z,3.10
2019-01-25T11:15:36.115Z,3.10
2019-01-25T11:16:37.148Z,3.10
2019-01-25T11:17:38.507Z,3.20
2019-01-25T11:18:39.539Z,3.20
2019-01-25T11:19:40.588Z,3.20
2019-01-25T11:20:41.710Z,3.20
2019-01-25T11:21:42.772Z,3.20
2019-01-25T11:22:43.921Z,3.30
2019-01-25T11:23:44.991Z,3.20
2019-01-25T11:24:46.004Z,3.20
2019-01-25T11:25:47.068Z,3.20
2019-01-25T11:26:48.108Z,3.20
2019-01-25T11:27:49.160Z,3.20
2019-01-25T11:28:50.190Z,3.20
2019-01-25T11:29:51.245Z,3.30
2019-01-25T11:30:52.286Z,3.20
2019-01-25T11:31:53.307Z,3.20
2019-01-25T11:32:54.390Z,3.30
2019-01-25T11:33:55.537Z,3.30
2019-01-25T11:34:56.586Z,3.30
2019-01-25T11:35:57.606Z,3.30
2019-01-25T11:36:58.650Z,3.40
2019-01-25T11:37:59.696Z,3.40
2019-01-25T11:39:00.907Z,3.40
2019-01-25T11:40:05.776Z,3.30
2019-01-25T11:41:06.825Z,3.30
2019-01-25T11:42:07.859Z,3.40
2019-01-25T11:43:09.302Z,3.40
2019-01-25T11:44:10.433Z,3.40
2019-01-25T11:45:11.560Z,3.40
2019-01-25T11:46:12.602Z,3.40
2019-01-25T11:47:13.628Z,3.50
2019-01-25T11:48:14.675Z,3.50
2019-01-25T11:49:15.720Z,3.60
2019-01-25T11:50:18.365Z,3.70
2019-01-25T11:51:20.000Z,3.70
2019-01-25T11:52:25.089Z,3.80
2019-01-25T11:53:24.284Z,3.80
2019-01-25T11:54:25.316Z,3.70
2019-01-25T11:55:26.352Z,3.70
2019-01-25T11:56:27.391Z,3.70
2019-01-25T11:57:28.416Z,3.60
2019-01-25T11:58:29.465Z,3.50
2019-01-25T11:59:30.484Z,3.50
2019-01-25T12:00:32.222Z,3.50
2019-01-25T12:01:33.252Z,3.50
2019-01-25T12:02:34.284Z,3.40
2019-01-25T12:03:35.340Z,3.40
2019-01-25T12:04:37.273Z,3.40
2019-01-25T12:05:38.332Z,3.40
2019-01-25T12:06:39.381Z,3.30
2019-01-25T12:07:40.423Z,3.30
2019-01-25T12:08:41.460Z,3.30
2019-01-25T12:09:42.487Z,3.40
2019-01-25T12:10:43.516Z,3.40
2019-01-25T12:11:44.540Z,3.40
2019-01-25T12:12:45.578Z,3.50
2019-01-25T12:13:46.603Z,3.50
2019-01-25T12:14:47.654Z,3.50
2019-01-25T12:15:48.668Z,3.50
2019-01-25T12:16:49.708Z,3.60
2019-01-25T12:17:50.741Z,3.60
2019-01-25T12:18:51.787Z,3.50
2019-01-25T12:19:52.824Z,3.40
2019-01-25T12:20:53.849Z,3.40
2019-01-25T12:21:54.985Z,3.50
2019-01-25T12:22:56.151Z,3.50
2019-01-25T12:23:57.179Z,3.50
2019-01-25T12:24:58.210Z,3.40
2019-01-25T12:25:59.252Z,3.40
2019-01-25T12:27:00.378Z,3.40
2019-01-25T12:28:05.375Z,3.40
2019-01-25T12:29:04.820Z,3.50
2019-01-25T12:30:12.910Z,3.50
2019-01-25T12:31:13.941Z,3.50
2019-01-25T12:32:14.949Z,3.50
2019-01-25T12:33:15.985Z,3.40
2019-01-25T12:34:17.014Z,3.40
2019-01-25T12:35:18.113Z,3.30
2019-01-25T12:36:19.113Z,3.30
2019-01-25T12:37:20.160Z,3.30
2019-01-25T12:38:21.179Z,3.30
2019-01-25T12:39:22.230Z,3.30
2019-01-25T12:40:23.248Z,3.30
2019-01-25T12:41:24.276Z,3.20
2019-01-25T12:42:25.314Z,3.30
2019-01-25T12:43:26.341Z,3.30
2019-01-25T12:44:27.386Z,3.30
2019-01-25T12:45:29.803Z,3.30
2019-01-25T12:46:32.102Z,3.40
2019-01-25T12:47:33.261Z,3.40
2019-01-25T12:48:34.307Z,3.40
2019-01-25T12:49:35.357Z,3.50
2019-01-25T12:50:42.780Z,3.50
2019-01-25T12:51:43.994Z,3.50
2019-01-25T12:52:45.108Z,3.60
2019-01-25T12:53:46.140Z,3.60
2019-01-25T12:54:47.174Z,3.60
2019-01-25T12:55:48.311Z,3.80
2019-01-25T12:56:49.313Z,3.70
2019-01-25T12:57:50.337Z,3.60
2019-01-25T12:58:51.389Z,3.60
2019-01-25T12:59:52.439Z,3.60
2019-01-25T13:00:53.533Z,3.60
2019-01-25T13:01:54.562Z,3.70
2019-01-25T13:02:55.720Z,3.70
2019-01-25T13:03:56.820Z,3.70
2019-01-25T13:04:57.841Z,3.80
2019-01-25T13:05:58.861Z,3.80
2019-01-25T13:06:59.884Z,3.90
2019-01-25T13:08:00.906Z,3.90
2019-01-25T13:09:05.755Z,3.90
2019-01-25T13:10:09.856Z,4.00
2019-01-25T13:11:10.888Z,4.00
2019-01-25T13:12:12.120Z,4.00
2019-01-25T13:13:13.170Z,4.10
2019-01-25T13:14:14.207Z,4.10
2019-01-25T13:15:15.413Z,4.00
2019-01-25T13:16:16.444Z,4.20
2019-01-25T13:17:17.474Z,4.20
2019-01-25T13:18:18.488Z,4.20
2019-01-25T13:19:19.534Z,4.20
2019-01-25T13:20:24.363Z,4.30
2019-01-25T13:21:25.384Z,4.20
2019-01-25T13:22:26.408Z,4.30
2019-01-25T13:23:27.588Z,4.20
2019-01-25T13:24:28.664Z,4.30
2019-01-25T13:25:29.735Z,4.30
2019-01-25T13:26:30.868Z,4.30
2019-01-25T13:27:31.896Z,4.40
2019-01-25T13:28:32.980Z,4.30
2019-01-25T13:29:34.012Z,4.30
2019-01-25T13:30:35.130Z,4.30
2019-01-25T13:31:36.397Z,4.20
2019-01-25T13:32:37.605Z,4.20
2019-01-25T13:33:38.841Z,4.20
2019-01-25T13:34:39.885Z,4.30
2019-01-25T13:35:40.912Z,4.20
2019-01-25T13:36:41.940Z,4.30
2019-01-25T13:37:42.975Z,4.30